sensor_id;sensor_type;location;lat;lon;timestamp;P1;durP1;ratioP1;P2;durP2;ratioP2
10511;SDS011;5304;48.604;2.096;2023-06-19T09:58:09;7.38;;;6.38;;
10511;SDS011;5304;48.604;2.096;2023-06-19T10:00:54;7.88;;;6.22;;
10511;SDS011;5304;48.604;2.096;2023-06-19T10:03:39;7.07;;;5.88;;
10511;SDS011;5304;48.604;2.096;2023-06-19T10:06:24;8.85;;;6.00;;
10511;SDS011;5304;48.604;2.096;2023-06-19T10:09:09;6.38;;;5.63;;
10511;SDS011;5304;48.604;2.096;2023-06-19T10:11:54;6.65;;;5.00;;
10511;SDS011;5304;48.604;2.096;2023-06-19T10:14:44;6.68;;;5.50;;
10511;SDS011;5304;48.604;2.096;2023-06-19T10:17:32;6.53;;;5.85;;
10511;SDS011;5304;48.604;2.096;2023-06-19T10:26:01;7.40;;;6.63;;
10511;SDS011;5304;48.604;2.096;2023-06-19T10:28:46;6.57;;;5.45;;
10511;SDS011;5304;48.604;2.096;2023-06-19T10:31:32;7.20;;;5.13;;
10511;SDS011;5304;48.604;2.096;2023-06-19T10:34:17;5.65;;;5.05;;
10511;SDS011;5304;48.604;2.096;2023-06-19T10:37:01;7.97;;;5.32;;
10511;SDS011;5304;48.604;2.096;2023-06-19T10:39:46;5.68;;;5.00;;
10511;SDS011;5304;48.604;2.096;2023-06-19T10:42:31;5.60;;;4.68;;
10511;SDS011;5304;48.604;2.096;2023-06-19T10:45:15;7.95;;;5.10;;
10511;SDS011;5304;48.604;2.096;2023-06-19T10:48:00;5.43;;;4.70;;
10511;SDS011;5304;48.604;2.096;2023-06-19T10:50:49;5.07;;;4.50;;
10511;SDS011;5304;48.604;2.096;2023-06-19T10:53:35;5.70;;;4.72;;
10511;SDS011;5304;48.604;2.096;2023-06-19T10:56:20;4.97;;;4.47;;
10511;SDS011;5304;48.604;2.096;2023-06-19T10:59:06;5.57;;;5.07;;
10511;SDS011;5304;48.604;2.096;2023-06-19T11:01:52;5.85;;;4.70;;
10511;SDS011;5304;48.604;2.096;2023-06-19T11:04:37;5.40;;;4.90;;
10511;SDS011;5304;48.604;2.096;2023-06-19T11:07:23;7.55;;;4.90;;
10511;SDS011;5304;48.604;2.096;2023-06-19T11:10:07;6.35;;;5.50;;
10511;SDS011;5304;48.604;2.096;2023-06-19T11:13:03;5.43;;;4.90;;
10511;SDS011;5304;48.604;2.096;2023-06-19T11:15:48;5.47;;;4.50;;
10511;SDS011;5304;48.604;2.096;2023-06-19T11:18:33;7.03;;;5.03;;
10511;SDS011;5304;48.604;2.096;2023-06-19T11:21:17;7.43;;;4.78;;
10511;SDS011;5304;48.604;2.096;2023-06-19T11:24:01;4.97;;;4.50;;
10511;SDS011;5304;48.604;2.096;2023-06-19T11:26:47;5.30;;;4.80;;
10511;SDS011;5304;48.604;2.096;2023-06-19T11:29:33;5.40;;;4.68;;
10511;SDS011;5304;48.604;2.096;2023-06-19T11:32:19;6.22;;;5.43;;
10511;SDS011;5304;48.604;2.096;2023-06-19T11:35:09;5.45;;;4.93;;
10511;SDS011;5304;48.604;2.096;2023-06-19T11:37:54;5.75;;;4.68;;
10511;SDS011;5304;48.604;2.096;2023-06-19T11:40:40;5.78;;;4.75;;
10511;SDS011;5304;48.604;2.096;2023-06-19T11:43:28;4.88;;;4.38;;
10511;SDS011;5304;48.604;2.096;2023-06-19T11:46:14;5.65;;;5.13;;
10511;SDS011;5304;48.604;2.096;2023-06-19T11:51:55;6.13;;;4.47;;
10511;SDS011;5304;48.604;2.096;2023-06-19T11:54:40;5.97;;;4.20;;
10511;SDS011;5304;48.604;2.096;2023-06-19T11:57:24;5.45;;;4.95;;
10511;SDS011;5304;48.604;2.096;2023-06-19T12:00:16;5.28;;;4.78;;
10511;SDS011;5304;48.604;2.096;2023-06-19T12:03:01;5.88;;;4.72;;
10511;SDS011;5304;48.604;2.096;2023-06-19T12:05:45;7.55;;;4.80;;
10511;SDS011;5304;48.604;2.096;2023-06-19T12:08:30;6.25;;;4.93;;
10511;SDS011;5304;48.604;2.096;2023-06-19T12:11:14;5.07;;;4.68;;
10511;SDS011;5304;48.604;2.096;2023-06-19T12:13:59;5.45;;;4.95;;
10511;SDS011;5304;48.604;2.096;2023-06-19T12:16:45;5.10;;;4.60;;
10511;SDS011;5304;48.604;2.096;2023-06-19T12:19:29;6.55;;;4.97;;
10511;SDS011;5304;48.604;2.096;2023-06-19T12:22:14;5.93;;;4.47;;
10511;SDS011;5304;48.604;2.096;2023-06-19T12:24:58;5.07;;;4.60;;
10511;SDS011;5304;48.604;2.096;2023-06-19T12:27:43;5.68;;;4.88;;
10511;SDS011;5304;48.604;2.096;2023-06-19T12:30:27;7.85;;;4.85;;
10511;SDS011;5304;48.604;2.096;2023-06-19T12:33:11;8.55;;;5.55;;
10511;SDS011;5304;48.604;2.096;2023-06-19T12:35:56;5.80;;;5.20;;
10511;SDS011;5304;48.604;2.096;2023-06-19T12:38:40;6.05;;;5.55;;
10511;SDS011;5304;48.604;2.096;2023-06-19T12:41:24;6.13;;;5.57;;
10511;SDS011;5304;48.604;2.096;2023-06-19T12:44:09;7.47;;;5.00;;
10511;SDS011;5304;48.604;2.096;2023-06-19T12:46:54;11.75;;;5.80;;
10511;SDS011;5304;48.604;2.096;2023-06-19T12:49:38;6.75;;;6.15;;
10511;SDS011;5304;48.604;2.096;2023-06-19T12:52:22;6.35;;;5.75;;
10511;SDS011;5304;48.604;2.096;2023-06-19T12:55:07;9.30;;;6.50;;
10511;SDS011;5304;48.604;2.096;2023-06-19T12:57:51;8.95;;;6.45;;
10511;SDS011;5304;48.604;2.096;2023-06-19T13:00:39;10.85;;;6.85;;
10511;SDS011;5304;48.604;2.096;2023-06-19T13:03:23;6.93;;;6.22;;
10511;SDS011;5304;48.604;2.096;2023-06-19T13:06:07;8.65;;;7.18;;
10511;SDS011;5304;48.604;2.096;2023-06-19T13:08:51;9.15;;;6.55;;
10511;SDS011;5304;48.604;2.096;2023-06-19T13:11:36;10.38;;;7.03;;
10511;SDS011;5304;48.604;2.096;2023-06-19T13:14:20;7.30;;;6.60;;
10511;SDS011;5304;48.604;2.096;2023-06-19T13:17:04;10.65;;;6.85;;
10511;SDS011;5304;48.604;2.096;2023-06-19T13:19:49;11.52;;;7.05;;
10511;SDS011;5304;48.604;2.096;2023-06-19T13:22:33;9.57;;;6.72;;
10511;SDS011;5304;48.604;2.096;2023-06-19T13:25:17;8.55;;;6.68;;
10511;SDS011;5304;48.604;2.096;2023-06-19T13:28:02;7.07;;;6.35;;
10511;SDS011;5304;48.604;2.096;2023-06-19T13:30:46;9.40;;;6.90;;
10511;SDS011;5304;48.604;2.096;2023-06-19T13:33:32;8.18;;;6.55;;
10511;SDS011;5304;48.604;2.096;2023-06-19T13:36:17;9.15;;;6.68;;
10511;SDS011;5304;48.604;2.096;2023-06-19T13:39:03;7.82;;;6.80;;
10511;SDS011;5304;48.604;2.096;2023-06-19T13:41:47;9.45;;;6.70;;
10511;SDS011;5304;48.604;2.096;2023-06-19T13:44:32;11.43;;;6.40;;
10511;SDS011;5304;48.604;2.096;2023-06-19T13:47:16;8.45;;;6.40;;
10511;SDS011;5304;48.604;2.096;2023-06-19T13:50:08;8.45;;;6.70;;
10511;SDS011;5304;48.604;2.096;2023-06-19T13:52:53;8.65;;;6.40;;
10511;SDS011;5304;48.604;2.096;2023-06-19T13:55:42;7.78;;;5.93;;
10511;SDS011;5304;48.604;2.096;2023-06-19T13:58:43;9.65;;;7.00;;
10511;SDS011;5304;48.604;2.096;2023-06-19T14:01:40;8.18;;;6.95;;
10511;SDS011;5304;48.604;2.096;2023-06-19T14:04:35;8.25;;;6.32;;
10511;SDS011;5304;48.604;2.096;2023-06-19T14:07:20;8.45;;;6.82;;
10511;SDS011;5304;48.604;2.096;2023-06-19T14:10:06;7.55;;;6.25;;
10511;SDS011;5304;48.604;2.096;2023-06-19T14:12:58;8.45;;;6.53;;
10511;SDS011;5304;48.604;2.096;2023-06-19T14:15:50;7.55;;;6.57;;
10511;SDS011;5304;48.604;2.096;2023-06-19T14:18:36;9.80;;;6.43;;
10511;SDS011;5304;48.604;2.096;2023-06-19T14:21:24;6.78;;;6.07;;
10511;SDS011;5304;48.604;2.096;2023-06-19T14:24:19;7.25;;;6.55;;
10511;SDS011;5304;48.604;2.096;2023-06-19T14:27:13;7.10;;;6.40;;
10511;SDS011;5304;48.604;2.096;2023-06-19T14:30:03;6.82;;;6.15;;
10511;SDS011;5304;48.604;2.096;2023-06-19T14:32:48;7.00;;;6.05;;
10511;SDS011;5304;48.604;2.096;2023-06-19T14:35:35;7.22;;;6.47;;
10511;SDS011;5304;48.604;2.096;2023-06-19T14:38:22;7.38;;;5.93;;
10511;SDS011;5304;48.604;2.096;2023-06-19T14:41:08;8.20;;;6.32;;
10511;SDS011;5304;48.604;2.096;2023-06-19T14:43:52;7.68;;;6.88;;
10511;SDS011;5304;48.604;2.096;2023-06-19T14:46:37;7.03;;;6.07;;
10511;SDS011;5304;48.604;2.096;2023-06-19T14:49:22;6.53;;;5.93;;
10511;SDS011;5304;48.604;2.096;2023-06-19T14:52:07;7.43;;;6.35;;
10511;SDS011;5304;48.604;2.096;2023-06-19T14:54:51;6.70;;;6.03;;
10511;SDS011;5304;48.604;2.096;2023-06-19T14:57:36;8.00;;;6.38;;
10511;SDS011;5304;48.604;2.096;2023-06-19T15:00:20;6.55;;;5.93;;
10511;SDS011;5304;48.604;2.096;2023-06-19T15:03:05;10.43;;;6.10;;
10511;SDS011;5304;48.604;2.096;2023-06-19T15:05:50;6.63;;;5.90;;
10511;SDS011;5304;48.604;2.096;2023-06-19T15:08:34;8.68;;;6.60;;
10511;SDS011;5304;48.604;2.096;2023-06-19T15:11:22;6.30;;;5.70;;
10511;SDS011;5304;48.604;2.096;2023-06-19T15:14:06;7.63;;;6.40;;
10511;SDS011;5304;48.604;2.096;2023-06-19T15:16:51;9.00;;;6.38;;
10511;SDS011;5304;48.604;2.096;2023-06-19T15:19:35;6.40;;;5.80;;
10511;SDS011;5304;48.604;2.096;2023-06-19T15:22:19;7.72;;;6.32;;
10511;SDS011;5304;48.604;2.096;2023-06-19T15:25:04;8.00;;;7.20;;
10511;SDS011;5304;48.604;2.096;2023-06-19T15:27:48;7.70;;;6.97;;
10511;SDS011;5304;48.604;2.096;2023-06-19T15:30:33;11.68;;;6.65;;
10511;SDS011;5304;48.604;2.096;2023-06-19T15:33:17;8.50;;;7.60;;
10511;SDS011;5304;48.604;2.096;2023-06-19T15:36:02;8.40;;;6.63;;
10511;SDS011;5304;48.604;2.096;2023-06-19T15:38:46;8.35;;;7.55;;
10511;SDS011;5304;48.604;2.096;2023-06-19T15:41:33;7.28;;;6.53;;
10511;SDS011;5304;48.604;2.096;2023-06-19T15:44:17;10.55;;;7.22;;
10511;SDS011;5304;48.604;2.096;2023-06-19T15:47:02;9.98;;;7.03;;
10511;SDS011;5304;48.604;2.096;2023-06-19T15:49:46;7.60;;;6.90;;
10511;SDS011;5304;48.604;2.096;2023-06-19T15:52:30;8.20;;;7.30;;
10511;SDS011;5304;48.604;2.096;2023-06-19T15:55:14;8.23;;;7.40;;
10511;SDS011;5304;48.604;2.096;2023-06-19T15:57:59;8.73;;;7.10;;
10511;SDS011;5304;48.604;2.096;2023-06-19T16:00:43;7.82;;;7.03;;
10511;SDS011;5304;48.604;2.096;2023-06-19T16:03:28;8.07;;;7.35;;
10511;SDS011;5304;48.604;2.096;2023-06-19T16:06:14;10.68;;;7.38;;
10511;SDS011;5304;48.604;2.096;2023-06-19T16:08:58;8.63;;;7.20;;
10511;SDS011;5304;48.604;2.096;2023-06-19T16:11:43;10.05;;;7.55;;
10511;SDS011;5304;48.604;2.096;2023-06-19T16:14:28;9.88;;;6.95;;
10511;SDS011;5304;48.604;2.096;2023-06-19T16:17:13;8.40;;;7.60;;
10511;SDS011;5304;48.604;2.096;2023-06-19T16:19:58;8.65;;;7.45;;
10511;SDS011;5304;48.604;2.096;2023-06-19T16:22:42;7.82;;;7.13;;
10511;SDS011;5304;48.604;2.096;2023-06-19T16:25:27;8.90;;;7.22;;
10511;SDS011;5304;48.604;2.096;2023-06-19T16:28:11;7.18;;;6.47;;
10511;SDS011;5304;48.604;2.096;2023-06-19T16:30:55;10.35;;;7.22;;
10511;SDS011;5304;48.604;2.096;2023-06-19T16:33:40;8.13;;;6.65;;
10511;SDS011;5304;48.604;2.096;2023-06-19T16:36:24;7.10;;;6.20;;
10511;SDS011;5304;48.604;2.096;2023-06-19T16:39:09;9.38;;;6.32;;
10511;SDS011;5304;48.604;2.096;2023-06-19T16:41:56;9.00;;;6.63;;
10511;SDS011;5304;48.604;2.096;2023-06-19T16:44:40;7.97;;;7.18;;
10511;SDS011;5304;48.604;2.096;2023-06-19T16:47:25;7.45;;;6.57;;
10511;SDS011;5304;48.604;2.096;2023-06-19T16:50:11;9.70;;;6.75;;
10511;SDS011;5304;48.604;2.096;2023-06-19T16:52:55;7.80;;;6.43;;
10511;SDS011;5304;48.604;2.096;2023-06-19T16:55:39;7.32;;;6.63;;
10511;SDS011;5304;48.604;2.096;2023-06-19T16:58:23;7.10;;;6.40;;
10511;SDS011;5304;48.604;2.096;2023-06-19T17:01:08;7.68;;;6.60;;
10511;SDS011;5304;48.604;2.096;2023-06-19T17:03:52;7.75;;;6.72;;
10511;SDS011;5304;48.604;2.096;2023-06-19T17:06:37;9.02;;;6.45;;
10511;SDS011;5304;48.604;2.096;2023-06-19T17:09:21;7.93;;;7.10;;
10511;SDS011;5304;48.604;2.096;2023-06-19T17:12:05;10.68;;;6.20;;
10511;SDS011;5304;48.604;2.096;2023-06-19T17:14:50;7.15;;;6.20;;
10511;SDS011;5304;48.604;2.096;2023-06-19T17:17:34;9.60;;;6.72;;
10511;SDS011;5304;48.604;2.096;2023-06-19T17:20:18;7.43;;;5.95;;
10511;SDS011;5304;48.604;2.096;2023-06-19T17:23:02;8.55;;;6.28;;
10511;SDS011;5304;48.604;2.096;2023-06-19T17:25:47;9.10;;;6.65;;
10511;SDS011;5304;48.604;2.096;2023-06-19T17:28:31;7.07;;;6.40;;
10511;SDS011;5304;48.604;2.096;2023-06-19T17:31:16;7.85;;;6.55;;
10511;SDS011;5304;48.604;2.096;2023-06-19T17:34:00;8.68;;;6.43;;
10511;SDS011;5304;48.604;2.096;2023-06-19T17:36:44;7.22;;;6.25;;
10511;SDS011;5304;48.604;2.096;2023-06-19T17:39:29;7.43;;;6.47;;
10511;SDS011;5304;48.604;2.096;2023-06-19T17:42:13;9.18;;;6.18;;
10511;SDS011;5304;48.604;2.096;2023-06-19T17:44:57;6.90;;;6.20;;
10511;SDS011;5304;48.604;2.096;2023-06-19T17:47:43;8.90;;;6.28;;
10511;SDS011;5304;48.604;2.096;2023-06-19T17:50:27;7.13;;;6.40;;
10511;SDS011;5304;48.604;2.096;2023-06-19T17:53:11;8.13;;;6.43;;
10511;SDS011;5304;48.604;2.096;2023-06-19T17:55:55;7.05;;;6.28;;
10511;SDS011;5304;48.604;2.096;2023-06-19T17:58:40;7.15;;;6.20;;
10511;SDS011;5304;48.604;2.096;2023-06-19T18:01:24;6.60;;;5.90;;
10511;SDS011;5304;48.604;2.096;2023-06-19T18:04:09;8.02;;;6.05;;
10511;SDS011;5304;48.604;2.096;2023-06-19T18:06:53;8.18;;;6.40;;
10511;SDS011;5304;48.604;2.096;2023-06-19T18:09:37;7.05;;;6.35;;
10511;SDS011;5304;48.604;2.096;2023-06-19T18:12:21;8.23;;;6.03;;
10511;SDS011;5304;48.604;2.096;2023-06-19T18:15:06;7.03;;;5.95;;
10511;SDS011;5304;48.604;2.096;2023-06-19T18:17:50;7.28;;;6.50;;
10511;SDS011;5304;48.604;2.096;2023-06-19T18:20:35;7.10;;;6.40;;
10511;SDS011;5304;48.604;2.096;2023-06-19T18:23:19;7.22;;;6.20;;
10511;SDS011;5304;48.604;2.096;2023-06-19T18:26:04;6.65;;;6.03;;
10511;SDS011;5304;48.604;2.096;2023-06-19T18:28:48;6.72;;;6.10;;
10511;SDS011;5304;48.604;2.096;2023-06-19T18:31:33;8.73;;;6.90;;
10511;SDS011;5304;48.604;2.096;2023-06-19T18:34:17;6.60;;;5.90;;
10511;SDS011;5304;48.604;2.096;2023-06-19T18:37:01;7.55;;;6.38;;
10511;SDS011;5304;48.604;2.096;2023-06-19T18:39:46;6.63;;;5.90;;
10511;SDS011;5304;48.604;2.096;2023-06-19T18:42:30;6.45;;;5.85;;
10511;SDS011;5304;48.604;2.096;2023-06-19T18:45:15;7.57;;;5.78;;
10511;SDS011;5304;48.604;2.096;2023-06-19T18:47:59;5.90;;;5.30;;
10511;SDS011;5304;48.604;2.096;2023-06-19T18:50:43;8.85;;;6.20;;
10511;SDS011;5304;48.604;2.096;2023-06-19T18:53:27;6.70;;;6.03;;
10511;SDS011;5304;48.604;2.096;2023-06-19T18:56:12;7.18;;;6.40;;
10511;SDS011;5304;48.604;2.096;2023-06-19T18:58:58;7.47;;;6.05;;
10511;SDS011;5304;48.604;2.096;2023-06-19T19:01:43;8.50;;;6.20;;
10511;SDS011;5304;48.604;2.096;2023-06-19T19:04:27;7.40;;;6.07;;
10511;SDS011;5304;48.604;2.096;2023-06-19T19:07:12;7.25;;;6.15;;
10511;SDS011;5304;48.604;2.096;2023-06-19T19:09:56;8.27;;;6.28;;
10511;SDS011;5304;48.604;2.096;2023-06-19T19:12:40;9.43;;;6.50;;
10511;SDS011;5304;48.604;2.096;2023-06-19T19:15:24;8.30;;;7.00;;
10511;SDS011;5304;48.604;2.096;2023-06-19T19:18:08;8.55;;;6.47;;
10511;SDS011;5304;48.604;2.096;2023-06-19T19:20:53;9.43;;;6.95;;
10511;SDS011;5304;48.604;2.096;2023-06-19T19:23:37;8.40;;;6.53;;
10511;SDS011;5304;48.604;2.096;2023-06-19T19:26:21;8.23;;;6.55;;
10511;SDS011;5304;48.604;2.096;2023-06-19T19:29:06;8.32;;;6.70;;
10511;SDS011;5304;48.604;2.096;2023-06-19T19:31:50;10.07;;;7.10;;
10511;SDS011;5304;48.604;2.096;2023-06-19T19:34:35;10.00;;;7.28;;
10511;SDS011;5304;48.604;2.096;2023-06-19T19:37:19;10.15;;;7.22;;
10511;SDS011;5304;48.604;2.096;2023-06-19T19:40:03;10.00;;;7.93;;
10511;SDS011;5304;48.604;2.096;2023-06-19T19:42:48;9.75;;;7.18;;
10511;SDS011;5304;48.604;2.096;2023-06-19T19:45:34;8.25;;;7.45;;
10511;SDS011;5304;48.604;2.096;2023-06-19T19:48:18;10.90;;;7.80;;
10511;SDS011;5304;48.604;2.096;2023-06-19T19:51:04;9.98;;;8.18;;
10511;SDS011;5304;48.604;2.096;2023-06-19T19:53:48;12.85;;;8.40;;
10511;SDS011;5304;48.604;2.096;2023-06-19T19:56:32;8.88;;;7.97;;
10511;SDS011;5304;48.604;2.096;2023-06-19T19:59:16;9.80;;;8.80;;
10511;SDS011;5304;48.604;2.096;2023-06-19T20:02:01;11.15;;;8.00;;
10511;SDS011;5304;48.604;2.096;2023-06-19T20:04:46;9.75;;;8.20;;
10511;SDS011;5304;48.604;2.096;2023-06-19T20:07:30;9.52;;;8.50;;
10511;SDS011;5304;48.604;2.096;2023-06-19T20:10:14;9.98;;;8.98;;
10511;SDS011;5304;48.604;2.096;2023-06-19T20:12:58;11.07;;;8.82;;
10511;SDS011;5304;48.604;2.096;2023-06-19T20:15:42;9.20;;;8.15;;
10511;SDS011;5304;48.604;2.096;2023-06-19T20:18:30;9.70;;;8.38;;
10511;SDS011;5304;48.604;2.096;2023-06-19T20:21:14;11.18;;;7.72;;
10511;SDS011;5304;48.604;2.096;2023-06-19T20:23:58;9.85;;;8.30;;
10511;SDS011;5304;48.604;2.096;2023-06-19T20:26:42;10.02;;;8.40;;
10511;SDS011;5304;48.604;2.096;2023-06-19T20:29:27;10.15;;;8.57;;
10511;SDS011;5304;48.604;2.096;2023-06-19T20:32:11;9.57;;;8.57;;
10511;SDS011;5304;48.604;2.096;2023-06-19T20:34:55;11.35;;;9.10;;
10511;SDS011;5304;48.604;2.096;2023-06-19T20:37:40;9.63;;;8.63;;
10511;SDS011;5304;48.604;2.096;2023-06-19T20:40:24;14.23;;;8.82;;
10511;SDS011;5304;48.604;2.096;2023-06-19T20:43:08;10.55;;;9.05;;
10511;SDS011;5304;48.604;2.096;2023-06-19T20:45:53;10.73;;;9.05;;
10511;SDS011;5304;48.604;2.096;2023-06-19T20:48:37;10.23;;;8.95;;
